createdAt,value
2023-03-02T00:00:26.596Z,11.73
2023-03-02T00:02:56.028Z,10.70
2023-03-02T00:05:25.434Z,8.13
2023-03-02T00:07:54.935Z,7.22
2023-03-02T00:10:27.068Z,7.28
2023-03-02T00:12:56.544Z,6.53
2023-03-02T00:15:25.911Z,19.85
2023-03-02T00:17:55.329Z,7.57
2023-03-02T00:20:24.744Z,6.13
2023-03-02T00:22:54.200Z,6.32
2023-03-02T00:25:24.011Z,6.60
2023-03-02T00:27:56.093Z,6.65
2023-03-02T00:30:25.501Z,7.95
2023-03-02T00:32:54.955Z,7.18
2023-03-02T00:35:24.460Z,7.10
2023-03-02T00:37:53.938Z,6.45
2023-03-02T00:40:23.326Z,7.22
2023-03-02T00:42:52.747Z,7.03
2023-03-02T00:45:24.791Z,6.65
2023-03-02T00:47:54.233Z,7.80
2023-03-02T00:50:23.652Z,7.50
2023-03-02T00:52:53.132Z,7.85
2023-03-02T00:55:22.611Z,7.68
2023-03-02T00:57:56.121Z,8.10
2023-03-02T01:00:30.018Z,8.25
2023-03-02T01:02:59.605Z,7.95
2023-03-02T01:05:29.298Z,7.57
2023-03-02T01:07:58.684Z,8.27
2023-03-02T01:10:28.093Z,8.68
2023-03-02T01:12:57.727Z,8.55
2023-03-02T01:15:29.775Z,8.15
2023-03-02T01:17:59.210Z,8.38
2023-03-02T01:20:28.699Z,7.93
2023-03-02T01:22:58.447Z,8.60
2023-03-02T01:25:27.891Z,7.93
2023-03-02T01:27:58.214Z,8.38
2023-03-02T01:30:30.228Z,8.35
2023-03-02T01:32:59.635Z,8.98
2023-03-02T01:35:29.207Z,7.50
2023-03-02T01:37:58.580Z,8.57
2023-03-02T01:40:28.109Z,9.43
2023-03-02T01:43:02.426Z,7.60
2023-03-02T01:45:57.321Z,7.07
2023-03-02T01:48:30.940Z,7.97
2023-03-02T01:51:01.373Z,7.80
2023-03-02T01:53:32.711Z,7.75
2023-03-02T01:56:03.028Z,11.95
2023-03-02T01:58:35.395Z,8.65
2023-03-02T02:01:15.642Z,8.95
2023-03-02T02:03:45.510Z,9.80
2023-03-02T02:06:19.465Z,8.85
2023-03-02T02:08:49.317Z,7.35
2023-03-02T02:11:19.132Z,7.63
2023-03-02T02:13:48.972Z,7.13
2023-03-02T02:16:21.026Z,7.50
2023-03-02T02:18:50.560Z,8.90
2023-03-02T02:21:21.006Z,8.80
2023-03-02T02:23:56.881Z,8.82
2023-03-02T02:26:31.245Z,7.82
2023-03-02T02:29:03.470Z,8.23
2023-03-02T02:31:37.776Z,7.72
2023-03-02T02:34:13.260Z,8.20
2023-03-02T02:36:46.619Z,9.13
2023-03-02T02:39:21.199Z,8.60
2023-03-02T02:41:54.704Z,8.60
2023-03-02T02:44:24.160Z,7.90
2023-03-02T02:46:53.645Z,8.15
2023-03-02T02:49:32.266Z,9.50
2023-03-02T02:52:02.011Z,9.00
2023-03-02T02:54:32.068Z,7.68
2023-03-02T02:57:05.464Z,7.20
2023-03-02T02:59:36.776Z,7.28
2023-03-02T03:02:06.264Z,15.27
2023-03-02T03:04:35.895Z,8.80
2023-03-02T03:07:07.157Z,8.77
2023-03-02T03:09:36.844Z,13.85
2023-03-02T03:12:14.401Z,7.47
2023-03-02T03:14:44.379Z,8.30
2023-03-02T03:17:14.628Z,7.25
2023-03-02T03:19:45.966Z,8.75
2023-03-02T03:22:16.661Z,8.50
2023-03-02T03:24:47.446Z,8.18
2023-03-02T03:27:19.863Z,8.13
2023-03-02T03:29:50.493Z,8.98
2023-03-02T03:32:20.552Z,8.50
2023-03-02T03:34:50.302Z,9.27
2023-03-02T03:37:21.806Z,7.97
2023-03-02T03:39:51.188Z,7.80
2023-03-02T03:42:24.223Z,11.32
2023-03-02T03:44:53.722Z,7.05
2023-03-02T03:47:23.184Z,9.38
2023-03-02T03:49:52.657Z,10.90
2023-03-02T03:52:30.490Z,10.05
2023-03-02T03:55:00.788Z,8.90
2023-03-02T03:57:33.051Z,9.13
2023-03-02T04:00:02.910Z,8.88
2023-03-02T04:02:32.533Z,8.55
2023-03-02T04:05:06.458Z,9.63
2023-03-02T04:07:36.414Z,8.70
2023-03-02T04:10:06.217Z,10.50
2023-03-02T04:12:40.845Z,8.52
2023-03-02T04:15:13.374Z,12.13
2023-03-02T04:17:43.552Z,8.98
2023-03-02T04:20:16.042Z,7.90
2023-03-02T04:22:46.740Z,7.82
2023-03-02T04:25:19.752Z,7.20
2023-03-02T04:27:53.569Z,7.95
2023-03-02T04:30:27.261Z,7.68
2023-03-02T04:32:57.714Z,8.20
2023-03-02T04:35:27.797Z,7.45
2023-03-02T04:37:57.299Z,8.07
2023-03-02T04:40:26.861Z,9.60
2023-03-02T04:42:58.878Z,8.25
2023-03-02T04:45:28.265Z,9.63
2023-03-02T04:47:57.665Z,7.95
2023-03-02T04:50:27.377Z,8.80
2023-03-02T04:52:56.848Z,9.93
2023-03-02T04:55:27.786Z,8.52
2023-03-02T04:57:59.797Z,11.63
2023-03-02T05:00:29.540Z,7.97
2023-03-02T05:02:58.971Z,8.75
2023-03-02T05:05:28.885Z,8.98
2023-03-02T05:07:58.642Z,9.05
2023-03-02T05:10:29.558Z,9.48
2023-03-02T05:13:02.689Z,9.50
2023-03-02T05:15:34.078Z,9.15
2023-03-02T05:18:04.002Z,9.05
2023-03-02T05:20:34.440Z,8.65
2023-03-02T05:23:05.626Z,9.60
2023-03-02T05:25:36.671Z,9.90
2023-03-02T05:28:08.891Z,9.20
2023-03-02T05:30:38.397Z,9.23
2023-03-02T05:33:07.951Z,8.68
2023-03-02T05:35:37.662Z,27.77
2023-03-02T05:38:07.416Z,22.10
2023-03-02T05:40:36.928Z,22.27
2023-03-02T05:43:09.339Z,11.02
2023-03-02T05:45:40.685Z,9.27
2023-03-02T05:48:10.513Z,12.30
2023-03-02T05:50:39.901Z,10.00
2023-03-02T05:53:09.678Z,16.13
2023-03-02T05:55:39.258Z,40.35
2023-03-02T05:58:15.856Z,23.67
2023-03-02T06:00:45.669Z,28.23
2023-03-02T06:03:15.180Z,37.73
2023-03-02T06:05:44.703Z,37.70
2023-03-02T06:08:14.109Z,30.83
2023-03-02T06:10:43.477Z,34.20
2023-03-02T06:13:15.814Z,18.33
2023-03-02T06:15:45.240Z,18.80
2023-03-02T06:18:14.950Z,12.70
2023-03-02T06:20:44.354Z,42.97
2023-03-02T06:23:14.241Z,24.27
2023-03-02T06:25:48.623Z,20.10
2023-03-02T06:28:22.097Z,29.53
2023-03-02T06:30:52.452Z,19.80
2023-03-02T06:33:22.686Z,11.77
2023-03-02T06:35:52.470Z,10.63
2023-03-02T06:38:21.953Z,17.63
2023-03-02T06:40:51.366Z,9.00
2023-03-02T06:43:23.365Z,11.32
2023-03-02T06:45:53.623Z,12.32
2023-03-02T06:48:23.026Z,14.48
2023-03-02T06:50:52.441Z,10.55
2023-03-02T06:53:23.490Z,12.20
2023-03-02T06:55:52.995Z,9.45
2023-03-02T06:58:25.051Z,14.95
2023-03-02T07:00:54.635Z,12.88
2023-03-02T07:03:24.098Z,15.73
2023-03-02T07:05:53.628Z,21.45
2023-03-02T07:08:23.312Z,23.43
2023-03-02T07:10:52.731Z,25.93
2023-03-02T07:13:25.028Z,27.40
2023-03-02T07:15:55.112Z,19.40
2023-03-02T07:18:24.565Z,7.80
2023-03-02T07:20:54.035Z,8.70
2023-03-02T07:23:23.753Z,9.40
2023-03-02T07:25:53.130Z,8.20
2023-03-02T07:28:25.424Z,8.40
2023-03-02T07:30:55.155Z,8.60
2023-03-02T07:33:24.943Z,8.60
2023-03-02T07:35:54.672Z,9.70
2023-03-02T07:38:24.149Z,9.40
2023-03-02T07:40:53.624Z,9.25
2023-03-02T07:43:28.797Z,8.87
2023-03-02T07:45:59.598Z,9.00
2023-03-02T07:48:29.684Z,9.15
2023-03-02T07:51:01.043Z,10.27
2023-03-02T07:53:30.686Z,8.68
2023-03-02T07:56:01.404Z,8.73
2023-03-02T07:58:34.648Z,8.95
2023-03-02T08:01:04.745Z,9.18
2023-03-02T08:03:34.352Z,9.40
2023-03-02T08:06:07.606Z,8.85
2023-03-02T08:08:37.546Z,11.20
2023-03-02T08:11:07.955Z,8.15
2023-03-02T08:13:40.179Z,9.13
2023-03-02T08:16:12.115Z,10.05
2023-03-02T08:18:45.347Z,9.30
2023-03-02T08:21:16.629Z,13.40
2023-03-02T08:23:46.327Z,9.35
2023-03-02T08:26:17.621Z,11.88
2023-03-02T08:28:50.749Z,9.15
2023-03-02T08:31:20.196Z,10.50
2023-03-02T08:33:49.611Z,7.68
2023-03-02T08:36:20.693Z,8.85
2023-03-02T08:38:50.655Z,9.82
2023-03-02T08:41:22.556Z,8.68
2023-03-02T08:43:56.198Z,9.13
2023-03-02T08:46:25.764Z,9.27
2023-03-02T08:48:55.159Z,12.43
2023-03-02T08:51:26.568Z,9.27
2023-03-02T08:53:57.812Z,8.95
2023-03-02T08:56:28.773Z,15.90
2023-03-02T08:59:02.041Z,9.63
2023-03-02T09:01:33.541Z,9.10
2023-03-02T09:04:03.443Z,8.90
2023-03-02T09:06:34.981Z,8.95
2023-03-02T09:09:04.580Z,9.80
2023-03-02T09:11:34.460Z,7.85
2023-03-02T09:14:06.676Z,9.10
2023-03-02T09:16:36.166Z,9.10
2023-03-02T09:19:05.627Z,10.45
2023-03-02T09:21:35.443Z,8.65
2023-03-02T09:24:05.008Z,10.30
2023-03-02T09:26:35.016Z,10.05
2023-03-02T09:29:07.513Z,8.77
2023-03-02T09:31:37.767Z,9.52
2023-03-02T09:34:08.086Z,8.40
2023-03-02T09:36:38.131Z,9.88
2023-03-02T09:39:12.380Z,22.73
2023-03-02T09:42:08.762Z,19.90
2023-03-02T09:44:54.911Z,14.70
2023-03-02T09:47:35.549Z,22.53
2023-03-02T09:50:13.789Z,30.60
2023-03-02T09:52:51.238Z,14.63
2023-03-02T09:55:22.954Z,27.73
2023-03-02T09:57:54.952Z,23.83
2023-03-02T10:00:31.386Z,8.13
2023-03-02T10:03:15.935Z,17.90
2023-03-02T10:05:47.509Z,15.93
2023-03-02T10:08:20.469Z,16.83
2023-03-02T10:10:55.263Z,8.10
2023-03-02T10:13:28.297Z,14.10
2023-03-02T10:16:09.846Z,14.40
2023-03-02T10:18:41.913Z,18.50
2023-03-02T10:21:21.504Z,13.80
2023-03-02T10:23:57.345Z,14.80
2023-03-02T10:26:35.054Z,10.53
2023-03-02T10:29:24.216Z,9.70
2023-03-02T10:32:00.985Z,16.90
2023-03-02T10:34:33.970Z,9.77
2023-03-02T10:37:03.434Z,10.40
2023-03-02T10:39:32.857Z,10.13
2023-03-02T10:42:06.713Z,9.57
2023-03-02T10:44:39.420Z,9.47
2023-03-02T10:47:22.283Z,9.13
2023-03-02T10:49:52.112Z,9.00
2023-03-02T10:52:22.676Z,14.43
2023-03-02T10:54:53.002Z,10.20
2023-03-02T10:57:32.730Z,11.93
2023-03-02T11:00:04.395Z,7.17
2023-03-02T11:02:39.157Z,8.90
2023-03-02T11:05:41.411Z,7.05
2023-03-02T11:08:12.517Z,10.50
2023-03-02T11:10:43.511Z,9.50
2023-03-02T11:13:20.601Z,7.20
2023-03-02T11:15:51.515Z,9.13
2023-03-02T11:18:29.284Z,15.23
2023-03-02T11:21:02.818Z,7.20
2023-03-02T11:23:44.120Z,6.70
2023-03-02T11:26:18.670Z,6.10
2023-03-02T11:28:51.683Z,7.60
2023-03-02T11:31:27.046Z,6.53
2023-03-02T11:34:17.636Z,6.30
2023-03-02T11:36:53.205Z,6.57
2023-03-02T11:39:26.381Z,10.30
2023-03-02T11:41:56.210Z,6.70
2023-03-02T11:44:27.552Z,6.90
2023-03-02T11:47:01.506Z,6.63
2023-03-02T11:49:40.825Z,11.43
2023-03-02T11:52:20.452Z,19.00
2023-03-02T11:54:52.580Z,8.73
2023-03-02T11:57:24.922Z,9.50
2023-03-02T11:59:55.251Z,8.73
2023-03-02T12:02:24.952Z,8.57
2023-03-02T12:05:06.932Z,12.87
2023-03-02T12:07:38.480Z,10.50
2023-03-02T12:10:10.818Z,13.40
2023-03-02T12:12:45.436Z,9.10
2023-03-02T12:15:45.436Z,8.47
2023-03-02T12:18:33.781Z,6.27
2023-03-02T12:21:08.409Z,7.63
2023-03-02T12:23:39.969Z,6.20
2023-03-02T12:26:12.032Z,16.23
2023-03-02T12:28:42.700Z,8.23
2023-03-02T12:31:14.045Z,5.80
2023-03-02T12:33:49.788Z,6.53
2023-03-02T12:36:28.037Z,6.03
2023-03-02T12:39:12.104Z,5.67
2023-03-02T12:41:49.504Z,6.40
2023-03-02T12:44:39.066Z,6.63
2023-03-02T12:47:11.809Z,11.87
2023-03-02T12:49:49.706Z,11.43
2023-03-02T12:52:30.428Z,7.10
2023-03-02T12:55:04.963Z,7.63
2023-03-02T12:57:34.636Z,14.13
2023-03-02T13:00:06.208Z,12.17
2023-03-02T13:02:37.729Z,8.70
2023-03-02T13:05:09.815Z,7.90
2023-03-02T13:07:44.810Z,7.67
2023-03-02T13:10:24.519Z,8.90
2023-03-02T13:12:54.092Z,9.40
2023-03-02T13:15:23.499Z,8.23
2023-03-02T13:17:57.400Z,9.80
2023-03-02T13:20:28.453Z,8.90
2023-03-02T13:23:00.480Z,8.40
2023-03-02T13:25:31.586Z,7.27
2023-03-02T13:28:07.570Z,9.37
2023-03-02T13:30:43.700Z,7.80
2023-03-02T13:33:23.458Z,9.60
2023-03-02T13:35:53.139Z,9.27
2023-03-02T13:38:27.336Z,9.80
2023-03-02T13:40:58.325Z,10.13
2023-03-02T13:43:37.760Z,9.87
2023-03-02T13:46:09.090Z,9.00
2023-03-02T13:48:38.594Z,9.70
2023-03-02T13:51:18.945Z,10.93
2023-03-02T13:53:59.325Z,10.23
2023-03-02T13:56:32.659Z,9.67
2023-03-02T13:59:02.950Z,8.20
2023-03-02T14:01:32.826Z,11.97
2023-03-02T14:04:03.272Z,8.47
2023-03-02T14:06:33.365Z,7.60
2023-03-02T14:09:05.567Z,8.37
2023-03-02T14:11:37.990Z,8.20
2023-03-02T14:14:08.415Z,7.30
2023-03-02T14:16:37.809Z,8.10
2023-03-02T14:19:09.750Z,8.10
2023-03-02T14:21:39.243Z,7.40
2023-03-02T14:24:11.622Z,7.00
2023-03-02T14:26:43.581Z,6.50
2023-03-02T14:29:20.261Z,6.03
2023-03-02T14:31:50.171Z,7.67
2023-03-02T14:34:20.205Z,5.57
2023-03-02T14:36:51.772Z,5.93
2023-03-02T14:39:25.732Z,5.90
2023-03-02T14:41:56.254Z,6.80
2023-03-02T14:44:26.134Z,6.27
2023-03-02T14:46:57.136Z,6.53
2023-03-02T14:49:26.839Z,7.57
2023-03-02T14:52:02.209Z,9.03
2023-03-02T14:54:39.618Z,6.83
2023-03-02T14:57:16.388Z,6.90
2023-03-02T14:59:46.149Z,7.90
2023-03-02T15:02:24.768Z,7.57
2023-03-02T15:04:56.935Z,8.47
2023-03-02T15:07:30.649Z,9.10
2023-03-02T15:10:02.642Z,7.88
2023-03-02T15:12:32.285Z,6.57
2023-03-02T15:15:01.729Z,7.47
2023-03-02T15:17:31.122Z,7.20
2023-03-02T15:20:00.505Z,6.70
2023-03-02T15:22:30.658Z,9.47
2023-03-02T15:25:02.708Z,8.47
2023-03-02T15:27:32.252Z,11.43
2023-03-02T15:30:01.640Z,7.60
2023-03-02T15:32:31.185Z,10.47
2023-03-02T15:35:01.686Z,30.23
2023-03-02T15:37:31.115Z,27.47
2023-03-02T15:40:03.336Z,20.77
2023-03-02T15:42:32.803Z,22.50
2023-03-02T15:45:02.249Z,14.30
2023-03-02T15:47:33.544Z,15.60
2023-03-02T15:50:02.980Z,11.00
2023-03-02T15:52:32.413Z,7.07
2023-03-02T15:55:04.404Z,6.60
2023-03-02T15:57:33.813Z,7.80
2023-03-02T16:00:05.235Z,7.80
2023-03-02T16:02:35.098Z,7.20
2023-03-02T16:05:04.767Z,6.73
2023-03-02T16:07:34.642Z,6.67
2023-03-02T16:10:07.280Z,10.63
2023-03-02T16:12:36.704Z,33.70
2023-03-02T16:15:06.999Z,29.47
2023-03-02T16:17:36.415Z,10.90
2023-03-02T16:20:06.203Z,11.13
2023-03-02T16:22:35.589Z,13.83
2023-03-02T16:25:08.352Z,8.93
2023-03-02T16:27:37.728Z,9.20
2023-03-02T16:30:08.496Z,8.05
2023-03-02T16:32:38.659Z,9.17
2023-03-02T16:35:09.245Z,9.03
2023-03-02T16:37:38.745Z,9.33
2023-03-02T16:40:12.862Z,9.00
2023-03-02T16:42:44.137Z,8.20
2023-03-02T16:45:14.010Z,8.90
2023-03-02T16:47:43.805Z,9.23
2023-03-02T16:50:14.543Z,9.53
2023-03-02T16:52:43.972Z,10.33
2023-03-02T16:55:18.287Z,9.70
2023-03-02T16:57:48.133Z,10.50
2023-03-02T17:00:20.720Z,10.77
2023-03-02T17:02:50.502Z,10.30
2023-03-02T17:05:21.909Z,9.83
2023-03-02T17:07:52.716Z,10.90
2023-03-02T17:10:24.879Z,10.80
2023-03-02T17:12:54.256Z,10.43
2023-03-02T17:15:23.694Z,9.87
2023-03-02T17:17:53.214Z,10.70
2023-03-02T17:20:22.885Z,11.30
2023-03-02T17:22:52.563Z,11.20
2023-03-02T17:25:24.992Z,10.40
2023-03-02T17:27:54.430Z,10.40
2023-03-02T17:30:23.950Z,10.43
2023-03-02T17:32:53.426Z,11.80
2023-03-02T17:35:23.021Z,20.53
2023-03-02T17:37:52.603Z,12.00
2023-03-02T17:40:24.814Z,10.07
2023-03-02T17:42:56.176Z,10.77
2023-03-02T17:45:29.946Z,11.00
2023-03-02T17:48:00.412Z,11.60
2023-03-02T17:50:31.746Z,10.87
2023-03-02T17:53:02.127Z,11.80
2023-03-02T17:55:34.445Z,12.13
2023-03-02T17:58:03.879Z,12.43
2023-03-02T18:00:33.843Z,11.53
2023-03-02T18:03:03.280Z,11.97
2023-03-02T18:05:32.726Z,12.60
2023-03-02T18:08:02.170Z,11.00
2023-03-02T18:10:34.205Z,12.33
2023-03-02T18:13:03.887Z,13.00
2023-03-02T18:15:34.194Z,12.77
2023-03-02T18:18:03.668Z,12.30
2023-03-02T18:20:33.232Z,13.07
2023-03-02T18:23:05.298Z,13.33
2023-03-02T18:25:37.307Z,12.27
2023-03-02T18:28:07.026Z,11.40
2023-03-02T18:30:36.528Z,12.90
2023-03-02T18:33:06.022Z,13.60
2023-03-02T18:35:35.747Z,12.90
2023-03-02T18:38:05.476Z,13.10
2023-03-02T18:40:37.602Z,12.30
2023-03-02T18:43:07.108Z,13.10
2023-03-02T18:45:36.843Z,12.17
2023-03-02T18:48:07.000Z,13.67
2023-03-02T18:50:37.091Z,14.17
2023-03-02T18:53:08.653Z,13.30
2023-03-02T18:55:40.696Z,12.53
2023-03-02T18:58:10.978Z,37.37
2023-03-02T19:00:41.424Z,39.17
2023-03-02T19:03:10.889Z,27.03
2023-03-02T19:05:40.434Z,19.70
2023-03-02T19:08:10.356Z,14.67
2023-03-02T19:10:43.159Z,13.13
2023-03-02T19:13:13.330Z,13.63
2023-03-02T19:15:43.078Z,13.50
2023-03-02T19:18:14.112Z,15.83
2023-03-02T19:20:43.535Z,14.30
2023-03-02T19:23:12.955Z,15.90
2023-03-02T19:25:45.630Z,16.57
2023-03-02T19:28:15.372Z,13.47
2023-03-02T19:30:44.786Z,13.37
2023-03-02T19:33:14.248Z,14.03
2023-03-02T19:35:43.948Z,14.20
2023-03-02T19:38:13.978Z,14.10
2023-03-02T19:40:45.975Z,14.73
2023-03-02T19:43:15.373Z,15.60
2023-03-02T19:45:44.860Z,14.80
2023-03-02T19:48:14.320Z,14.03
2023-03-02T19:50:45.404Z,14.43
2023-03-02T19:53:15.960Z,14.20
2023-03-02T19:55:48.206Z,15.43
2023-03-02T19:58:20.555Z,18.63
2023-03-02T20:00:50.120Z,16.27
2023-03-02T20:03:19.676Z,15.80
2023-03-02T20:05:49.139Z,16.57
2023-03-02T20:08:21.654Z,21.30
2023-03-02T20:10:53.840Z,19.23
2023-03-02T20:13:24.393Z,19.07
2023-03-02T20:15:55.437Z,21.93
2023-03-02T20:18:24.862Z,26.93
2023-03-02T20:20:54.375Z,19.10
2023-03-02T20:23:24.010Z,23.17
2023-03-02T20:25:56.486Z,19.07
2023-03-02T20:28:26.627Z,16.73
2023-03-02T20:30:59.654Z,18.03
2023-03-02T20:33:32.308Z,19.37
2023-03-02T20:36:03.949Z,16.73
2023-03-02T20:38:38.875Z,20.20
2023-03-02T20:41:12.304Z,16.33
2023-03-02T20:43:42.328Z,16.88
2023-03-02T20:46:13.379Z,17.03
2023-03-02T20:48:42.934Z,15.97
2023-03-02T20:51:12.753Z,16.30
2023-03-02T20:53:43.076Z,18.60
2023-03-02T20:56:15.427Z,21.75
2023-03-02T20:58:44.986Z,18.10
2023-03-02T21:01:15.037Z,19.50
2023-03-02T21:03:45.006Z,20.13
2023-03-02T21:06:15.373Z,20.17
2023-03-02T21:08:46.046Z,20.93
2023-03-02T21:11:19.944Z,18.03
2023-03-02T21:13:50.497Z,16.23
2023-03-02T21:16:23.953Z,18.15
2023-03-02T21:18:53.449Z,17.80
2023-03-02T21:21:32.487Z,16.77
2023-03-02T21:24:09.766Z,18.50
2023-03-02T21:26:44.272Z,17.73
2023-03-02T21:29:14.542Z,18.80
2023-03-02T21:31:44.642Z,18.93
2023-03-02T21:34:15.094Z,18.67
2023-03-02T21:36:45.367Z,20.10
2023-03-02T21:39:16.489Z,18.98
2023-03-02T21:41:48.512Z,20.80
2023-03-02T21:44:18.811Z,20.55
2023-03-02T21:46:48.880Z,20.13
2023-03-02T21:49:18.910Z,20.85
2023-03-02T21:51:49.835Z,19.92
2023-03-02T21:54:19.466Z,21.17
2023-03-02T21:56:51.429Z,21.42
2023-03-02T21:59:20.901Z,19.65
2023-03-02T22:01:50.375Z,21.15
2023-03-02T22:04:20.055Z,23.65
2023-03-02T22:06:49.579Z,22.63
2023-03-02T22:09:18.964Z,22.38
2023-03-02T22:11:51.590Z,24.52
2023-03-02T22:14:23.927Z,24.23
2023-03-02T22:16:53.385Z,24.83
2023-03-02T22:19:29.956Z,22.30
2023-03-02T22:22:00.417Z,22.88
2023-03-02T22:24:31.461Z,24.00
2023-03-02T22:27:05.687Z,24.08
2023-03-02T22:29:41.382Z,23.33
2023-03-02T22:32:18.073Z,23.45
2023-03-02T22:34:48.400Z,23.42
2023-03-02T22:37:20.512Z,22.92
2023-03-02T22:39:50.628Z,21.50
2023-03-02T22:42:24.154Z,23.67
2023-03-02T22:44:58.773Z,22.77
2023-03-02T22:47:28.411Z,21.77
2023-03-02T22:49:59.857Z,22.27
2023-03-02T22:52:37.159Z,22.45
2023-03-02T22:55:30.865Z,22.33
2023-03-02T22:58:03.896Z,21.00
2023-03-02T23:00:37.849Z,24.52
2023-03-02T23:03:17.597Z,24.52
2023-03-02T23:05:49.267Z,22.30
2023-03-02T23:08:22.997Z,25.00
2023-03-02T23:10:54.025Z,25.48
2023-03-02T23:13:28.347Z,24.55
2023-03-02T23:15:57.738Z,23.25
2023-03-02T23:18:29.237Z,20.42
2023-03-02T23:20:58.714Z,23.50
2023-03-02T23:23:29.549Z,22.90
2023-03-02T23:25:59.463Z,21.67
2023-03-02T23:28:31.407Z,23.35
2023-03-02T23:31:00.863Z,24.42
2023-03-02T23:33:30.257Z,22.17
2023-03-02T23:35:59.960Z,21.45
2023-03-02T23:38:29.448Z,23.80
2023-03-02T23:40:58.846Z,23.83
2023-03-02T23:43:31.119Z,25.42
2023-03-02T23:46:00.610Z,22.23
2023-03-02T23:48:30.151Z,24.83
2023-03-02T23:50:59.742Z,26.33
2023-03-02T23:53:29.163Z,21.52
2023-03-02T23:55:58.616Z,19.67
2023-03-02T23:58:30.733Z,23.67
